sensor_id;sensor_type;location;lat;lon;timestamp;P1;durP1;ratioP1;P2;durP2;ratioP2
6031;SDS011;3044;43.232;27.972;2023-05-10T00:01:49;13.40;;;5.57;;
6031;SDS011;3044;43.232;27.972;2023-05-10T00:04:16;5.30;;;4.80;;
6031;SDS011;3044;43.232;27.972;2023-05-10T00:06:43;10.13;;;5.77;;
6031;SDS011;3044;43.232;27.972;2023-05-10T00:09:10;5.63;;;5.00;;
6031;SDS011;3044;43.232;27.972;2023-05-10T00:11:37;6.37;;;4.57;;
6031;SDS011;3044;43.232;27.972;2023-05-10T00:14:06;16.00;;;5.03;;
6031;SDS011;3044;43.232;27.972;2023-05-10T00:16:33;8.10;;;4.57;;
6031;SDS011;3044;43.232;27.972;2023-05-10T00:19:00;11.10;;;5.57;;
6031;SDS011;3044;43.232;27.972;2023-05-10T00:21:27;7.30;;;5.20;;
6031;SDS011;3044;43.232;27.972;2023-05-10T00:23:54;6.30;;;4.90;;
6031;SDS011;3044;43.232;27.972;2023-05-10T00:26:21;7.60;;;4.87;;
6031;SDS011;3044;43.232;27.972;2023-05-10T00:28:48;5.07;;;4.40;;
6031;SDS011;3044;43.232;27.972;2023-05-10T00:31:17;5.63;;;4.90;;
6031;SDS011;3044;43.232;27.972;2023-05-10T00:33:44;5.23;;;4.83;;
6031;SDS011;3044;43.232;27.972;2023-05-10T00:36:11;8.43;;;4.90;;
6031;SDS011;3044;43.232;27.972;2023-05-10T00:38:38;8.33;;;5.00;;
6031;SDS011;3044;43.232;27.972;2023-05-10T00:41:05;7.03;;;5.07;;
6031;SDS011;3044;43.232;27.972;2023-05-10T00:43:33;14.47;;;5.40;;
6031;SDS011;3044;43.232;27.972;2023-05-10T00:46:00;6.03;;;5.37;;
6031;SDS011;3044;43.232;27.972;2023-05-10T00:48:29;9.53;;;5.20;;
6031;SDS011;3044;43.232;27.972;2023-05-10T00:50:56;6.97;;;5.90;;
6031;SDS011;3044;43.232;27.972;2023-05-10T00:53:23;8.27;;;5.60;;
6031;SDS011;3044;43.232;27.972;2023-05-10T00:55:51;9.23;;;5.60;;
6031;SDS011;3044;43.232;27.972;2023-05-10T00:58:18;9.73;;;6.10;;
6031;SDS011;3044;43.232;27.972;2023-05-10T01:00:45;5.90;;;5.30;;
6031;SDS011;3044;43.232;27.972;2023-05-10T01:03:13;9.03;;;6.07;;
6031;SDS011;3044;43.232;27.972;2023-05-10T01:05:42;8.40;;;6.50;;
6031;SDS011;3044;43.232;27.972;2023-05-10T01:08:09;8.40;;;5.87;;
6031;SDS011;3044;43.232;27.972;2023-05-10T01:10:36;8.77;;;6.60;;
6031;SDS011;3044;43.232;27.972;2023-05-10T01:13:03;24.07;;;7.27;;
6031;SDS011;3044;43.232;27.972;2023-05-10T01:15:31;10.80;;;7.50;;
6031;SDS011;3044;43.232;27.972;2023-05-10T01:17:58;11.17;;;7.53;;
6031;SDS011;3044;43.232;27.972;2023-05-10T01:20:27;11.33;;;6.77;;
6031;SDS011;3044;43.232;27.972;2023-05-10T01:23:26;9.50;;;7.60;;
6031;SDS011;3044;43.232;27.972;2023-05-10T01:26:17;9.07;;;7.83;;
6031;SDS011;3044;43.232;27.972;2023-05-10T01:29:24;8.60;;;7.80;;
6031;SDS011;3044;43.232;27.972;2023-05-10T01:32:17;13.27;;;8.60;;
6031;SDS011;3044;43.232;27.972;2023-05-10T01:34:54;11.53;;;8.13;;
6031;SDS011;3044;43.232;27.972;2023-05-10T01:37:29;8.53;;;7.70;;
6031;SDS011;3044;43.232;27.972;2023-05-10T01:40:06;10.20;;;7.17;;
6031;SDS011;3044;43.232;27.972;2023-05-10T01:42:38;9.80;;;7.13;;
6031;SDS011;3044;43.232;27.972;2023-05-10T01:45:16;10.67;;;7.60;;
6031;SDS011;3044;43.232;27.972;2023-05-10T01:47:50;9.57;;;7.70;;
6031;SDS011;3044;43.232;27.972;2023-05-10T01:50:22;10.40;;;7.03;;
6031;SDS011;3044;43.232;27.972;2023-05-10T01:52:54;14.00;;;9.00;;
6031;SDS011;3044;43.232;27.972;2023-05-10T01:55:24;18.77;;;7.60;;
6031;SDS011;3044;43.232;27.972;2023-05-10T01:57:56;12.23;;;7.63;;
6031;SDS011;3044;43.232;27.972;2023-05-10T02:00:28;10.97;;;8.10;;
6031;SDS011;3044;43.232;27.972;2023-05-10T02:02:59;9.73;;;7.67;;
6031;SDS011;3044;43.232;27.972;2023-05-10T02:05:28;13.43;;;6.90;;
6031;SDS011;3044;43.232;27.972;2023-05-10T02:07:58;8.20;;;7.40;;
6031;SDS011;3044;43.232;27.972;2023-05-10T02:10:27;11.47;;;7.33;;
6031;SDS011;3044;43.232;27.972;2023-05-10T02:12:55;8.90;;;7.57;;
6031;SDS011;3044;43.232;27.972;2023-05-10T02:15:26;12.17;;;7.00;;
6031;SDS011;3044;43.232;27.972;2023-05-10T02:17:54;13.03;;;8.57;;
6031;SDS011;3044;43.232;27.972;2023-05-10T02:20:25;9.73;;;8.13;;
6031;SDS011;3044;43.232;27.972;2023-05-10T02:22:54;9.73;;;8.17;;
6031;SDS011;3044;43.232;27.972;2023-05-10T02:25:23;9.97;;;7.93;;
6031;SDS011;3044;43.232;27.972;2023-05-10T02:27:51;16.30;;;8.90;;
6031;SDS011;3044;43.232;27.972;2023-05-10T02:30:20;10.57;;;8.10;;
6031;SDS011;3044;43.232;27.972;2023-05-10T02:32:49;11.77;;;8.03;;
6031;SDS011;3044;43.232;27.972;2023-05-10T02:35:17;7.93;;;7.00;;
6031;SDS011;3044;43.232;27.972;2023-05-10T02:37:46;9.03;;;6.70;;
6031;SDS011;3044;43.232;27.972;2023-05-10T02:40:14;7.50;;;6.80;;
6031;SDS011;3044;43.232;27.972;2023-05-10T02:42:43;9.43;;;7.20;;
6031;SDS011;3044;43.232;27.972;2023-05-10T02:45:12;11.77;;;7.47;;
6031;SDS011;3044;43.232;27.972;2023-05-10T02:47:41;9.23;;;6.80;;
6031;SDS011;3044;43.232;27.972;2023-05-10T02:50:09;13.60;;;7.27;;
6031;SDS011;3044;43.232;27.972;2023-05-10T02:52:39;18.73;;;7.20;;
6031;SDS011;3044;43.232;27.972;2023-05-10T02:55:12;25.03;;;7.50;;
6031;SDS011;3044;43.232;27.972;2023-05-10T02:57:43;15.50;;;8.13;;
6031;SDS011;3044;43.232;27.972;2023-05-10T03:00:15;12.83;;;7.30;;
6031;SDS011;3044;43.232;27.972;2023-05-10T03:02:42;12.00;;;7.60;;
6031;SDS011;3044;43.232;27.972;2023-05-10T03:05:09;10.73;;;7.90;;
6031;SDS011;3044;43.232;27.972;2023-05-10T03:07:36;9.43;;;7.80;;
6031;SDS011;3044;43.232;27.972;2023-05-10T03:10:04;13.77;;;7.57;;
6031;SDS011;3044;43.232;27.972;2023-05-10T03:12:46;10.27;;;8.43;;
6031;SDS011;3044;43.232;27.972;2023-05-10T03:15:24;16.33;;;7.77;;
6031;SDS011;3044;43.232;27.972;2023-05-10T03:18:00;8.10;;;7.20;;
6031;SDS011;3044;43.232;27.972;2023-05-10T03:20:31;12.13;;;7.30;;
6031;SDS011;3044;43.232;27.972;2023-05-10T03:23:04;14.83;;;7.27;;
6031;SDS011;3044;43.232;27.972;2023-05-10T03:25:35;11.03;;;8.23;;
6031;SDS011;3044;43.232;27.972;2023-05-10T03:28:05;9.73;;;6.90;;
6031;SDS011;3044;43.232;27.972;2023-05-10T03:30:32;10.03;;;7.37;;
6031;SDS011;3044;43.232;27.972;2023-05-10T03:33:03;14.50;;;7.70;;
6031;SDS011;3044;43.232;27.972;2023-05-10T03:35:31;13.23;;;7.50;;
6031;SDS011;3044;43.232;27.972;2023-05-10T03:37:58;10.03;;;6.80;;
6031;SDS011;3044;43.232;27.972;2023-05-10T03:40:25;8.60;;;6.03;;
6031;SDS011;3044;43.232;27.972;2023-05-10T03:42:56;9.10;;;5.53;;
6031;SDS011;3044;43.232;27.972;2023-05-10T03:45:25;8.10;;;5.30;;
6031;SDS011;3044;43.232;27.972;2023-05-10T03:47:52;6.50;;;5.53;;
6031;SDS011;3044;43.232;27.972;2023-05-10T03:50:19;7.30;;;4.67;;
6031;SDS011;3044;43.232;27.972;2023-05-10T03:52:46;7.10;;;5.73;;
6031;SDS011;3044;43.232;27.972;2023-05-10T03:55:13;12.40;;;5.73;;
6031;SDS011;3044;43.232;27.972;2023-05-10T03:57:41;6.43;;;5.80;;
6031;SDS011;3044;43.232;27.972;2023-05-10T04:00:09;7.00;;;4.73;;
6031;SDS011;3044;43.232;27.972;2023-05-10T04:02:38;8.20;;;5.43;;
6031;SDS011;3044;43.232;27.972;2023-05-10T04:05:05;5.90;;;5.10;;
6031;SDS011;3044;43.232;27.972;2023-05-10T04:07:33;5.40;;;4.87;;
6031;SDS011;3044;43.232;27.972;2023-05-10T04:10:00;14.90;;;4.77;;
6031;SDS011;3044;43.232;27.972;2023-05-10T04:12:27;7.83;;;4.50;;
6031;SDS011;3044;43.232;27.972;2023-05-10T04:14:54;4.67;;;4.20;;
6031;SDS011;3044;43.232;27.972;2023-05-10T04:17:21;7.17;;;4.00;;
6031;SDS011;3044;43.232;27.972;2023-05-10T04:19:50;7.00;;;4.17;;
6031;SDS011;3044;43.232;27.972;2023-05-10T04:22:19;4.53;;;4.13;;
6031;SDS011;3044;43.232;27.972;2023-05-10T04:24:47;9.00;;;4.53;;
6031;SDS011;3044;43.232;27.972;2023-05-10T04:27:14;8.17;;;4.07;;
6031;SDS011;3044;43.232;27.972;2023-05-10T04:29:41;4.37;;;4.07;;
6031;SDS011;3044;43.232;27.972;2023-05-10T04:32:08;7.50;;;4.10;;
6031;SDS011;3044;43.232;27.972;2023-05-10T04:34:35;5.43;;;4.00;;
6031;SDS011;3044;43.232;27.972;2023-05-10T04:37:04;6.90;;;4.20;;
6031;SDS011;3044;43.232;27.972;2023-05-10T04:39:32;6.03;;;3.70;;
6031;SDS011;3044;43.232;27.972;2023-05-10T04:42:00;8.20;;;3.50;;
6031;SDS011;3044;43.232;27.972;2023-05-10T04:44:28;6.60;;;3.50;;
6031;SDS011;3044;43.232;27.972;2023-05-10T04:46:55;8.03;;;2.90;;
6031;SDS011;3044;43.232;27.972;2023-05-10T04:49:22;4.33;;;3.03;;
6031;SDS011;3044;43.232;27.972;2023-05-10T04:51:49;3.53;;;2.80;;
6031;SDS011;3044;43.232;27.972;2023-05-10T04:54:17;3.87;;;2.33;;
6031;SDS011;3044;43.232;27.972;2023-05-10T04:56:45;3.00;;;2.50;;
6031;SDS011;3044;43.232;27.972;2023-05-10T04:59:12;5.10;;;2.40;;
6031;SDS011;3044;43.232;27.972;2023-05-10T05:01:39;5.77;;;2.90;;
6031;SDS011;3044;43.232;27.972;2023-05-10T05:04:06;3.43;;;2.50;;
6031;SDS011;3044;43.232;27.972;2023-05-10T05:06:33;3.30;;;3.00;;
6031;SDS011;3044;43.232;27.972;2023-05-10T05:09:00;3.10;;;2.73;;
6031;SDS011;3044;43.232;27.972;2023-05-10T05:11:29;4.53;;;2.87;;
6031;SDS011;3044;43.232;27.972;2023-05-10T05:13:56;6.60;;;3.20;;
6031;SDS011;3044;43.232;27.972;2023-05-10T05:16:24;3.73;;;2.57;;
6031;SDS011;3044;43.232;27.972;2023-05-10T05:18:51;4.40;;;2.70;;
6031;SDS011;3044;43.232;27.972;2023-05-10T05:21:19;2.50;;;1.73;;
6031;SDS011;3044;43.232;27.972;2023-05-10T05:23:46;6.37;;;2.87;;
6031;SDS011;3044;43.232;27.972;2023-05-10T05:26:13;2.37;;;2.27;;
6031;SDS011;3044;43.232;27.972;2023-05-10T05:28:42;7.10;;;3.17;;
6031;SDS011;3044;43.232;27.972;2023-05-10T05:31:09;7.10;;;3.03;;
6031;SDS011;3044;43.232;27.972;2023-05-10T05:33:36;4.20;;;2.37;;
6031;SDS011;3044;43.232;27.972;2023-05-10T05:36:04;5.20;;;2.17;;
6031;SDS011;3044;43.232;27.972;2023-05-10T05:38:32;3.23;;;2.80;;
6031;SDS011;3044;43.232;27.972;2023-05-10T05:40:59;3.13;;;2.83;;
6031;SDS011;3044;43.232;27.972;2023-05-10T05:43:26;3.90;;;2.60;;
6031;SDS011;3044;43.232;27.972;2023-05-10T05:45:55;2.80;;;2.43;;
6031;SDS011;3044;43.232;27.972;2023-05-10T05:48:22;5.93;;;2.20;;
6031;SDS011;3044;43.232;27.972;2023-05-10T05:50:50;3.93;;;2.40;;
6031;SDS011;3044;43.232;27.972;2023-05-10T05:53:20;3.77;;;2.60;;
6031;SDS011;3044;43.232;27.972;2023-05-10T05:55:51;3.40;;;2.77;;
6031;SDS011;3044;43.232;27.972;2023-05-10T05:58:19;4.60;;;2.53;;
6031;SDS011;3044;43.232;27.972;2023-05-10T06:00:46;2.60;;;2.43;;
6031;SDS011;3044;43.232;27.972;2023-05-10T06:03:15;2.50;;;2.40;;
6031;SDS011;3044;43.232;27.972;2023-05-10T06:05:42;7.17;;;2.97;;
6031;SDS011;3044;43.232;27.972;2023-05-10T06:08:09;3.30;;;2.40;;
6031;SDS011;3044;43.232;27.972;2023-05-10T06:10:37;3.30;;;2.77;;
6031;SDS011;3044;43.232;27.972;2023-05-10T06:13:04;5.47;;;2.70;;
6031;SDS011;3044;43.232;27.972;2023-05-10T06:15:31;2.63;;;2.27;;
6031;SDS011;3044;43.232;27.972;2023-05-10T06:17:58;7.63;;;2.70;;
6031;SDS011;3044;43.232;27.972;2023-05-10T06:20:27;3.53;;;2.53;;
6031;SDS011;3044;43.232;27.972;2023-05-10T06:22:56;6.13;;;2.27;;
6031;SDS011;3044;43.232;27.972;2023-05-10T06:25:24;5.30;;;3.03;;
6031;SDS011;3044;43.232;27.972;2023-05-10T06:27:51;2.50;;;2.30;;
6031;SDS011;3044;43.232;27.972;2023-05-10T06:30:23;3.77;;;3.40;;
6031;SDS011;3044;43.232;27.972;2023-05-10T06:32:53;3.10;;;2.50;;
6031;SDS011;3044;43.232;27.972;2023-05-10T06:35:20;3.90;;;2.40;;
6031;SDS011;3044;43.232;27.972;2023-05-10T06:37:49;10.97;;;2.50;;
6031;SDS011;3044;43.232;27.972;2023-05-10T06:40:16;2.30;;;2.20;;
6031;SDS011;3044;43.232;27.972;2023-05-10T06:42:44;2.80;;;2.60;;
6031;SDS011;3044;43.232;27.972;2023-05-10T06:45:11;4.60;;;2.93;;
6031;SDS011;3044;43.232;27.972;2023-05-10T06:47:39;4.57;;;2.40;;
6031;SDS011;3044;43.232;27.972;2023-05-10T06:50:07;3.07;;;2.80;;
6031;SDS011;3044;43.232;27.972;2023-05-10T06:52:34;2.53;;;2.33;;
6031;SDS011;3044;43.232;27.972;2023-05-10T06:55:03;6.17;;;2.70;;
6031;SDS011;3044;43.232;27.972;2023-05-10T06:57:31;10.77;;;3.00;;
6031;SDS011;3044;43.232;27.972;2023-05-10T06:59:58;3.07;;;2.77;;
6031;SDS011;3044;43.232;27.972;2023-05-10T07:02:25;7.03;;;2.53;;
6031;SDS011;3044;43.232;27.972;2023-05-10T07:04:53;3.40;;;2.67;;
6031;SDS011;3044;43.232;27.972;2023-05-10T07:07:20;6.93;;;2.80;;
6031;SDS011;3044;43.232;27.972;2023-05-10T07:09:47;3.23;;;2.37;;
6031;SDS011;3044;43.232;27.972;2023-05-10T07:12:16;2.70;;;2.50;;
6031;SDS011;3044;43.232;27.972;2023-05-10T07:14:43;4.80;;;2.50;;
6031;SDS011;3044;43.232;27.972;2023-05-10T07:17:10;3.10;;;2.53;;
6031;SDS011;3044;43.232;27.972;2023-05-10T07:19:38;2.10;;;2.00;;
6031;SDS011;3044;43.232;27.972;2023-05-10T07:22:05;4.70;;;2.90;;
6031;SDS011;3044;43.232;27.972;2023-05-10T07:24:32;6.40;;;3.00;;
6031;SDS011;3044;43.232;27.972;2023-05-10T07:26:59;4.53;;;2.87;;
6031;SDS011;3044;43.232;27.972;2023-05-10T07:29:28;7.90;;;3.40;;
6031;SDS011;3044;43.232;27.972;2023-05-10T07:31:55;5.97;;;3.40;;
6031;SDS011;3044;43.232;27.972;2023-05-10T07:34:22;8.10;;;3.00;;
6031;SDS011;3044;43.232;27.972;2023-05-10T07:36:49;10.07;;;2.90;;
6031;SDS011;3044;43.232;27.972;2023-05-10T07:39:16;6.33;;;2.97;;
6031;SDS011;3044;43.232;27.972;2023-05-10T07:41:43;9.53;;;3.13;;
6031;SDS011;3044;43.232;27.972;2023-05-10T07:44:10;2.97;;;2.70;;
6031;SDS011;3044;43.232;27.972;2023-05-10T07:46:39;8.67;;;3.00;;
6031;SDS011;3044;43.232;27.972;2023-05-10T07:49:06;4.00;;;2.67;;
6031;SDS011;3044;43.232;27.972;2023-05-10T07:51:34;5.70;;;2.87;;
6031;SDS011;3044;43.232;27.972;2023-05-10T07:54:01;4.10;;;2.97;;
6031;SDS011;3044;43.232;27.972;2023-05-10T07:56:28;5.03;;;2.50;;
6031;SDS011;3044;43.232;27.972;2023-05-10T07:58:56;9.23;;;3.30;;
6031;SDS011;3044;43.232;27.972;2023-05-10T08:01:24;6.40;;;2.40;;
6031;SDS011;3044;43.232;27.972;2023-05-10T08:03:53;7.70;;;2.83;;
6031;SDS011;3044;43.232;27.972;2023-05-10T08:06:20;3.00;;;2.80;;
6031;SDS011;3044;43.232;27.972;2023-05-10T08:08:48;4.50;;;2.60;;
6031;SDS011;3044;43.232;27.972;2023-05-10T08:11:16;2.90;;;2.50;;
6031;SDS011;3044;43.232;27.972;2023-05-10T08:13:43;4.40;;;2.83;;
6031;SDS011;3044;43.232;27.972;2023-05-10T08:16:10;3.13;;;2.40;;
6031;SDS011;3044;43.232;27.972;2023-05-10T08:18:37;5.67;;;2.10;;
6031;SDS011;3044;43.232;27.972;2023-05-10T08:21:06;2.70;;;2.20;;
6031;SDS011;3044;43.232;27.972;2023-05-10T08:23:36;8.00;;;2.57;;
6031;SDS011;3044;43.232;27.972;2023-05-10T08:26:03;3.97;;;2.43;;
6031;SDS011;3044;43.232;27.972;2023-05-10T08:28:30;4.50;;;2.50;;
6031;SDS011;3044;43.232;27.972;2023-05-10T08:30:57;5.00;;;2.60;;
6031;SDS011;3044;43.232;27.972;2023-05-10T08:33:24;9.23;;;2.40;;
6031;SDS011;3044;43.232;27.972;2023-05-10T08:35:51;5.20;;;2.87;;
6031;SDS011;3044;43.232;27.972;2023-05-10T08:38:20;4.53;;;2.80;;
6031;SDS011;3044;43.232;27.972;2023-05-10T08:40:47;5.80;;;2.60;;
6031;SDS011;3044;43.232;27.972;2023-05-10T08:43:16;13.80;;;2.10;;
6031;SDS011;3044;43.232;27.972;2023-05-10T08:45:43;6.50;;;2.77;;
6031;SDS011;3044;43.232;27.972;2023-05-10T08:48:12;2.60;;;2.40;;
6031;SDS011;3044;43.232;27.972;2023-05-10T08:50:40;6.03;;;3.03;;
6031;SDS011;3044;43.232;27.972;2023-05-10T08:53:09;4.33;;;2.80;;
6031;SDS011;3044;43.232;27.972;2023-05-10T08:55:39;9.40;;;2.93;;
6031;SDS011;3044;43.232;27.972;2023-05-10T08:58:08;6.13;;;2.60;;
6031;SDS011;3044;43.232;27.972;2023-05-10T09:00:35;2.47;;;2.30;;
6031;SDS011;3044;43.232;27.972;2023-05-10T09:03:03;5.30;;;2.50;;
6031;SDS011;3044;43.232;27.972;2023-05-10T09:05:32;6.93;;;2.90;;
6031;SDS011;3044;43.232;27.972;2023-05-10T09:07:59;3.37;;;2.93;;
6031;SDS011;3044;43.232;27.972;2023-05-10T09:10:26;4.83;;;2.60;;
6031;SDS011;3044;43.232;27.972;2023-05-10T09:12:56;5.60;;;2.63;;
6031;SDS011;3044;43.232;27.972;2023-05-10T09:15:24;2.80;;;2.60;;
6031;SDS011;3044;43.232;27.972;2023-05-10T09:17:51;2.80;;;2.60;;
6031;SDS011;3044;43.232;27.972;2023-05-10T09:20:18;17.20;;;3.10;;
6031;SDS011;3044;43.232;27.972;2023-05-10T09:22:46;3.93;;;2.30;;
6031;SDS011;3044;43.232;27.972;2023-05-10T09:25:13;3.23;;;2.93;;
6031;SDS011;3044;43.232;27.972;2023-05-10T09:27:44;6.93;;;3.30;;
6031;SDS011;3044;43.232;27.972;2023-05-10T09:30:16;3.43;;;2.40;;
6031;SDS011;3044;43.232;27.972;2023-05-10T09:32:44;3.23;;;3.00;;
6031;SDS011;3044;43.232;27.972;2023-05-10T09:35:13;6.13;;;3.60;;
6031;SDS011;3044;43.232;27.972;2023-05-10T09:37:41;4.03;;;3.63;;
6031;SDS011;3044;43.232;27.972;2023-05-10T09:40:11;5.77;;;3.47;;
6031;SDS011;3044;43.232;27.972;2023-05-10T09:42:40;9.17;;;3.07;;
6031;SDS011;3044;43.232;27.972;2023-05-10T09:45:08;3.00;;;2.70;;
6031;SDS011;3044;43.232;27.972;2023-05-10T09:47:37;10.33;;;2.70;;
6031;SDS011;3044;43.232;27.972;2023-05-10T09:50:05;12.50;;;3.47;;
6031;SDS011;3044;43.232;27.972;2023-05-10T09:52:45;4.20;;;3.33;;
6031;SDS011;3044;43.232;27.972;2023-05-10T09:55:13;7.20;;;3.63;;
6031;SDS011;3044;43.232;27.972;2023-05-10T09:57:41;3.50;;;2.90;;
6031;SDS011;3044;43.232;27.972;2023-05-10T10:00:08;11.03;;;3.10;;
6031;SDS011;3044;43.232;27.972;2023-05-10T10:02:37;7.43;;;2.70;;
6031;SDS011;3044;43.232;27.972;2023-05-10T10:05:06;9.67;;;4.17;;
6031;SDS011;3044;43.232;27.972;2023-05-10T10:07:33;10.63;;;3.10;;
6031;SDS011;3044;43.232;27.972;2023-05-10T10:10:01;4.13;;;2.87;;
6031;SDS011;3044;43.232;27.972;2023-05-10T10:12:31;8.50;;;4.30;;
6031;SDS011;3044;43.232;27.972;2023-05-10T10:14:59;7.73;;;2.67;;
6031;SDS011;3044;43.232;27.972;2023-05-10T10:17:26;3.30;;;3.00;;
6031;SDS011;3044;43.232;27.972;2023-05-10T10:19:56;4.13;;;2.13;;
6031;SDS011;3044;43.232;27.972;2023-05-10T10:22:23;9.17;;;2.93;;
6031;SDS011;3044;43.232;27.972;2023-05-10T10:24:51;3.37;;;2.63;;
6031;SDS011;3044;43.232;27.972;2023-05-10T10:27:20;4.30;;;2.83;;
6031;SDS011;3044;43.232;27.972;2023-05-10T10:29:52;2.83;;;2.63;;
6031;SDS011;3044;43.232;27.972;2023-05-10T10:32:30;4.90;;;2.40;;
6031;SDS011;3044;43.232;27.972;2023-05-10T10:35:10;2.90;;;2.60;;
6031;SDS011;3044;43.232;27.972;2023-05-10T10:37:43;9.33;;;2.63;;
6031;SDS011;3044;43.232;27.972;2023-05-10T10:40:27;3.90;;;2.77;;
6031;SDS011;3044;43.232;27.972;2023-05-10T10:42:55;2.73;;;1.90;;
6031;SDS011;3044;43.232;27.972;2023-05-10T10:45:23;5.30;;;2.50;;
6031;SDS011;3044;43.232;27.972;2023-05-10T10:50:56;3.20;;;2.20;;
6031;SDS011;3044;43.232;27.972;2023-05-10T10:53:25;2.97;;;2.40;;
6031;SDS011;3044;43.232;27.972;2023-05-10T10:56:02;2.73;;;2.53;;
6031;SDS011;3044;43.232;27.972;2023-05-10T10:58:34;2.70;;;2.10;;
6031;SDS011;3044;43.232;27.972;2023-05-10T11:01:10;3.83;;;2.67;;
6031;SDS011;3044;43.232;27.972;2023-05-10T11:03:38;4.50;;;2.10;;
6031;SDS011;3044;43.232;27.972;2023-05-10T11:06:07;21.83;;;2.97;;
6031;SDS011;3044;43.232;27.972;2023-05-10T11:08:35;10.83;;;2.50;;
6031;SDS011;3044;43.232;27.972;2023-05-10T11:11:09;2.67;;;2.43;;
6031;SDS011;3044;43.232;27.972;2023-05-10T11:13:41;8.77;;;2.70;;
6031;SDS011;3044;43.232;27.972;2023-05-10T11:16:10;5.63;;;3.10;;
6031;SDS011;3044;43.232;27.972;2023-05-10T11:18:39;2.90;;;2.70;;
6031;SDS011;3044;43.232;27.972;2023-05-10T11:21:09;8.73;;;2.87;;
6031;SDS011;3044;43.232;27.972;2023-05-10T11:26:21;5.00;;;3.00;;
6031;SDS011;3044;43.232;27.972;2023-05-10T11:28:50;15.67;;;3.13;;
6031;SDS011;3044;43.232;27.972;2023-05-10T11:31:19;4.53;;;2.80;;
6031;SDS011;3044;43.232;27.972;2023-05-10T11:33:47;5.17;;;3.47;;
6031;SDS011;3044;43.232;27.972;2023-05-10T11:36:27;5.00;;;2.70;;
6031;SDS011;3044;43.232;27.972;2023-05-10T11:39:02;3.63;;;2.90;;
6031;SDS011;3044;43.232;27.972;2023-05-10T11:41:30;3.80;;;3.30;;
6031;SDS011;3044;43.232;27.972;2023-05-10T11:43:57;4.53;;;3.27;;
6031;SDS011;3044;43.232;27.972;2023-05-10T11:46:25;4.60;;;3.40;;
6031;SDS011;3044;43.232;27.972;2023-05-10T11:48:55;6.27;;;3.40;;
6031;SDS011;3044;43.232;27.972;2023-05-10T11:51:27;3.90;;;2.87;;
6031;SDS011;3044;43.232;27.972;2023-05-10T11:53:55;9.23;;;3.00;;
6031;SDS011;3044;43.232;27.972;2023-05-10T11:56:23;20.63;;;3.00;;
6031;SDS011;3044;43.232;27.972;2023-05-10T11:58:54;8.00;;;3.00;;
6031;SDS011;3044;43.232;27.972;2023-05-10T12:01:23;3.43;;;2.70;;
6031;SDS011;3044;43.232;27.972;2023-05-10T12:03:51;5.37;;;2.53;;
6031;SDS011;3044;43.232;27.972;2023-05-10T12:06:20;3.60;;;2.63;;
6031;SDS011;3044;43.232;27.972;2023-05-10T12:08:49;3.60;;;3.30;;
6031;SDS011;3044;43.232;27.972;2023-05-10T12:11:18;6.30;;;2.97;;
6031;SDS011;3044;43.232;27.972;2023-05-10T12:13:46;10.83;;;2.80;;
6031;SDS011;3044;43.232;27.972;2023-05-10T12:16:18;2.40;;;2.30;;
6031;SDS011;3044;43.232;27.972;2023-05-10T12:18:48;7.47;;;2.80;;
6031;SDS011;3044;43.232;27.972;2023-05-10T12:21:16;9.40;;;3.00;;
6031;SDS011;3044;43.232;27.972;2023-05-10T12:23:45;16.60;;;4.33;;
6031;SDS011;3044;43.232;27.972;2023-05-10T12:26:14;7.83;;;2.97;;
6031;SDS011;3044;43.232;27.972;2023-05-10T12:28:41;2.90;;;2.63;;
6031;SDS011;3044;43.232;27.972;2023-05-10T12:31:08;7.10;;;3.20;;
6031;SDS011;3044;43.232;27.972;2023-05-10T12:33:36;6.20;;;3.77;;
6031;SDS011;3044;43.232;27.972;2023-05-10T12:36:06;4.80;;;3.07;;
6031;SDS011;3044;43.232;27.972;2023-05-10T12:38:35;6.13;;;3.10;;
6031;SDS011;3044;43.232;27.972;2023-05-10T12:41:04;6.80;;;3.03;;
6031;SDS011;3044;43.232;27.972;2023-05-10T12:43:34;5.53;;;3.03;;
6031;SDS011;3044;43.232;27.972;2023-05-10T12:46:05;3.87;;;3.13;;
6031;SDS011;3044;43.232;27.972;2023-05-10T12:48:33;8.43;;;2.70;;
6031;SDS011;3044;43.232;27.972;2023-05-10T12:51:00;5.27;;;3.27;;
6031;SDS011;3044;43.232;27.972;2023-05-10T12:53:28;9.37;;;3.20;;
6031;SDS011;3044;43.232;27.972;2023-05-10T12:55:55;8.20;;;3.47;;
6031;SDS011;3044;43.232;27.972;2023-05-10T12:58:23;8.40;;;3.07;;
6031;SDS011;3044;43.232;27.972;2023-05-10T13:00:51;5.63;;;2.97;;
6031;SDS011;3044;43.232;27.972;2023-05-10T13:03:19;4.70;;;2.83;;
6031;SDS011;3044;43.232;27.972;2023-05-10T13:05:46;8.10;;;3.17;;
6031;SDS011;3044;43.232;27.972;2023-05-10T13:08:13;3.40;;;2.83;;
6031;SDS011;3044;43.232;27.972;2023-05-10T13:10:40;3.23;;;2.67;;
6031;SDS011;3044;43.232;27.972;2023-05-10T13:13:07;12.40;;;3.93;;
6031;SDS011;3044;43.232;27.972;2023-05-10T13:15:34;4.60;;;3.40;;
6031;SDS011;3044;43.232;27.972;2023-05-10T13:18:03;10.00;;;2.83;;
6031;SDS011;3044;43.232;27.972;2023-05-10T13:20:30;8.00;;;2.90;;
6031;SDS011;3044;43.232;27.972;2023-05-10T13:22:58;6.60;;;3.10;;
6031;SDS011;3044;43.232;27.972;2023-05-10T13:25:25;4.87;;;3.20;;
6031;SDS011;3044;43.232;27.972;2023-05-10T13:27:52;8.60;;;3.40;;
6031;SDS011;3044;43.232;27.972;2023-05-10T13:30:19;6.03;;;3.10;;
6031;SDS011;3044;43.232;27.972;2023-05-10T13:32:46;7.63;;;2.90;;
6031;SDS011;3044;43.232;27.972;2023-05-10T13:35:15;5.80;;;3.30;;
6031;SDS011;3044;43.232;27.972;2023-05-10T13:37:42;5.30;;;2.83;;
6031;SDS011;3044;43.232;27.972;2023-05-10T13:40:09;5.70;;;3.17;;
6031;SDS011;3044;43.232;27.972;2023-05-10T13:42:37;11.03;;;3.50;;
6031;SDS011;3044;43.232;27.972;2023-05-10T13:45:05;12.37;;;3.30;;
6031;SDS011;3044;43.232;27.972;2023-05-10T13:47:32;3.80;;;3.37;;
6031;SDS011;3044;43.232;27.972;2023-05-10T13:50:00;3.93;;;2.70;;
6031;SDS011;3044;43.232;27.972;2023-05-10T13:52:30;6.00;;;3.40;;
6031;SDS011;3044;43.232;27.972;2023-05-10T13:54:57;7.07;;;2.93;;
6031;SDS011;3044;43.232;27.972;2023-05-10T13:57:24;3.97;;;3.00;;
6031;SDS011;3044;43.232;27.972;2023-05-10T13:59:51;6.40;;;3.97;;
6031;SDS011;3044;43.232;27.972;2023-05-10T14:02:18;9.03;;;3.40;;
6031;SDS011;3044;43.232;27.972;2023-05-10T14:04:46;4.50;;;3.30;;
6031;SDS011;3044;43.232;27.972;2023-05-10T14:07:13;11.30;;;3.20;;
6031;SDS011;3044;43.232;27.972;2023-05-10T14:09:41;3.70;;;3.50;;
6031;SDS011;3044;43.232;27.972;2023-05-10T14:12:09;6.13;;;3.50;;
6031;SDS011;3044;43.232;27.972;2023-05-10T14:14:36;6.57;;;2.97;;
6031;SDS011;3044;43.232;27.972;2023-05-10T14:17:04;4.30;;;3.27;;
6031;SDS011;3044;43.232;27.972;2023-05-10T14:19:31;4.53;;;3.57;;
6031;SDS011;3044;43.232;27.972;2023-05-10T14:21:59;3.23;;;3.03;;
6031;SDS011;3044;43.232;27.972;2023-05-10T14:24:26;2.80;;;2.50;;
6031;SDS011;3044;43.232;27.972;2023-05-10T14:26:54;11.47;;;2.93;;
6031;SDS011;3044;43.232;27.972;2023-05-10T14:29:22;3.87;;;3.57;;
6031;SDS011;3044;43.232;27.972;2023-05-10T14:31:49;5.00;;;3.30;;
6031;SDS011;3044;43.232;27.972;2023-05-10T14:34:16;3.77;;;2.50;;
6031;SDS011;3044;43.232;27.972;2023-05-10T14:36:43;3.10;;;2.83;;
6031;SDS011;3044;43.232;27.972;2023-05-10T14:39:10;3.60;;;3.30;;
6031;SDS011;3044;43.232;27.972;2023-05-10T14:41:38;3.57;;;3.20;;
6031;SDS011;3044;43.232;27.972;2023-05-10T14:44:09;4.20;;;3.20;;
6031;SDS011;3044;43.232;27.972;2023-05-10T14:46:36;3.77;;;3.30;;
6031;SDS011;3044;43.232;27.972;2023-05-10T14:49:03;7.23;;;2.50;;
6031;SDS011;3044;43.232;27.972;2023-05-10T14:51:30;4.30;;;3.43;;
6031;SDS011;3044;43.232;27.972;2023-05-10T14:53:58;6.10;;;3.93;;
6031;SDS011;3044;43.232;27.972;2023-05-10T14:56:25;4.67;;;2.93;;
6031;SDS011;3044;43.232;27.972;2023-05-10T14:58:53;12.83;;;3.63;;
6031;SDS011;3044;43.232;27.972;2023-05-10T15:01:21;5.73;;;3.63;;
6031;SDS011;3044;43.232;27.972;2023-05-10T15:03:48;4.93;;;3.27;;
6031;SDS011;3044;43.232;27.972;2023-05-10T15:06:15;6.37;;;2.60;;
6031;SDS011;3044;43.232;27.972;2023-05-10T15:08:42;12.50;;;3.77;;
6031;SDS011;3044;43.232;27.972;2023-05-10T15:11:09;9.70;;;3.60;;
6031;SDS011;3044;43.232;27.972;2023-05-10T15:13:37;6.50;;;3.60;;